Kankakee, IL

12:36 PM CDT on July 22, 2017 (GMT -0500)
Greater Kankakee

Weather History for KIKK - April, 2013

Change the Weather History Date:

Monday, April 8, 2013

  Actual Average Record
Temperature  
Mean Temperature 56 °F -  
Max Temperature 71 °F 59 °F 81 °F (1986)
Min Temperature 40 °F 35 °F 15 °F (1982)
Degree Days  
Heating Degree Days 10    
Growing Degree Days 6 (Base 50)    
Moisture  
Dew Point 49 °F    
Average Humidity 73    
Maximum Humidity 96    
Minimum Humidity 50    
Precipitation  
Precipitation 0.14 in - - ()
Sea Level Pressure  
Sea Level Pressure 29.81 in    
Wind  
Wind Speed 13 mph (SSE)    
Max Wind Speed 30 mph    
Max Gust Speed 44 mph    
Visibility 10 miles    
Events Rain , Thunderstorm    
Averages and records for this station are not official NWS values.
T = Trace of Precipitation, MM = Missing Value Source: NWS Daily Summary

Daily Weather History Graph

Daily Weather History Graph

Search for Another Location

Airport or City:

Trip Planner

Search our weather history database for the weather conditions in past years. The results will help you decide how hot, cold, wet, or windy it might be!

Date:

Astronomy

Apr. 08, 2013 Rise Set
Actual Time 6:22 AM CDT 7:24 PM CDT
Civil Twilight 5:54 AM CDT 7:52 PM CDT
Nautical Twilight 5:21 AM CDT 8:25 PM CDT
Astronomical Twilight 4:46 AM CDT 9:00 PM CDT
Moon 5:13 AM CDT (4/8) 5:57 PM CDT (4/8)
Length of Visible Light 13h 57m
Length of Day
13h 01m
Waning Crescent, 3% of the Moon is Illuminated
Apr 8
Waning Crescent
Apr 10
New
Apr 18
First Quarter
Apr 25
Full
May 2
Last Quarter

Hourly Weather History & Observations

Time (CDT) Temp. Windchill Dew Point Humidity Pressure Visibility Wind Dir Wind Speed Gust Speed Precip Events Conditions
12:15 AM 41.0 °F 35.8 °F 35.6 °F 81% 29.90 in 10.0 mi ENE 8.1 mph - N/A   Clear
12:35 AM 40.5 °F 36.5 °F 35.6 °F 83% 29.91 in 10.0 mi East 5.8 mph - N/A   Clear
12:55 AM 41.5 °F 36.4 °F 36.1 °F 81% 29.90 in 10.0 mi East 8.1 mph - N/A   Clear
1:15 AM 43.3 °F 39.2 °F 36.7 °F 77% 29.91 in 10.0 mi East 6.9 mph - N/A   Clear
1:35 AM 43.0 °F 37.7 °F 37.0 °F 80% 29.89 in 10.0 mi East 9.2 mph - N/A   Clear
1:55 AM 45.9 °F 40.4 °F 38.3 °F 75% 29.87 in 10.0 mi East 11.5 mph - N/A   Clear
2:15 AM 47.5 °F - 38.5 °F 71% 29.85 in 10.0 mi ESE 10.4 mph - N/A   Scattered Clouds
2:35 AM 48.2 °F - 39.0 °F 71% 29.85 in 10.0 mi ESE 9.2 mph - N/A   Mostly Cloudy
2:55 AM 48.9 °F - 39.2 °F 69% 29.83 in 10.0 mi ESE 12.7 mph - N/A   Scattered Clouds
3:15 AM 49.1 °F - 39.4 °F 69% 29.82 in 10.0 mi ESE 12.7 mph - N/A   Clear
3:35 AM 49.1 °F - 39.7 °F 70% 29.82 in 10.0 mi ESE 10.4 mph - N/A   Clear
3:55 AM 49.8 °F - 41.0 °F 72% 29.81 in 10.0 mi ESE 10.4 mph - N/A   Mostly Cloudy
4:15 AM 49.8 °F - 41.9 °F 74% 29.80 in 10.0 mi ESE 10.4 mph - N/A   Overcast
4:35 AM 49.1 °F - 44.1 °F 83% 29.79 in 10.0 mi ESE 6.9 mph - N/A Rain , Thunderstorm Light Thunderstorms and Rain
4:55 AM 50.2 °F - 48.2 °F 93% 29.78 in 7.0 mi ESE 5.8 mph - 0.03 in Rain , Thunderstorm Rain
5:15 AM 49.5 °F - 48.2 °F 95% 29.78 in 7.0 mi ESE 9.2 mph - 0.02 in Rain Light Rain
5:35 AM 49.8 °F - 48.2 °F 94% 29.77 in 10.0 mi ESE 8.1 mph - 0.03 in Rain Light Rain
5:55 AM 50.7 °F - 49.6 °F 96% 29.75 in 7.0 mi ESE 8.1 mph - 0.04 in Rain Light Rain
6:15 AM 55.9 °F - 52.9 °F 89% 29.74 in 10.0 mi SE 16.1 mph 23.0 mph 0.01 in Rain Light Rain
6:35 AM 56.3 °F - 52.9 °F 88% 29.72 in 7.0 mi SSE 15.0 mph - 0.03 in Rain Light Rain
6:55 AM 56.3 °F - 52.9 °F 88% 29.70 in 10.0 mi SSE 21.9 mph 27.6 mph 0.04 in   Mostly Cloudy
7:15 AM 57.0 °F - 52.7 °F 85% 29.69 in 10.0 mi SSE 24.2 mph 31.1 mph N/A Rain Rain
7:35 AM 56.5 °F - 52.7 °F 87% 29.71 in 10.0 mi South 18.4 mph 25.3 mph N/A   Light Drizzle
7:55 AM 57.2 °F - 52.9 °F 85% 29.71 in 10.0 mi South 17.3 mph 25.3 mph N/A   Overcast
8:15 AM 57.4 °F - 53.1 °F 85% 29.71 in 10.0 mi South 19.6 mph 25.3 mph N/A   Overcast
8:35 AM 58.1 °F - 52.9 °F 83% 29.71 in 10.0 mi South 21.9 mph 28.8 mph N/A   Overcast
8:55 AM 58.5 °F - 53.1 °F 82% 29.69 in 10.0 mi South 24.2 mph 29.9 mph N/A   Overcast
9:15 AM 60.6 °F - 54.5 °F 80% 29.69 in 10.0 mi South 23.0 mph 31.1 mph N/A   Mostly Cloudy
9:35 AM 59.9 °F - 54.0 °F 81% 29.71 in 10.0 mi SSW 21.9 mph 31.1 mph N/A Rain Rain
9:55 AM 59.2 °F - 54.9 °F 86% 29.73 in 10.0 mi SW 25.3 mph 43.7 mph 0.03 in Rain Light Rain
10:15 AM 59.0 °F - 53.8 °F 83% 29.72 in 10.0 mi SW 21.9 mph 29.9 mph N/A   Overcast
10:35 AM 61.7 °F - 54.9 °F 78% 29.74 in 10.0 mi SW 29.9 mph 38.0 mph N/A   Scattered Clouds
10:55 AM 63.1 °F - 54.3 °F 73% 29.74 in 10.0 mi SW 27.6 mph 34.5 mph N/A   Clear
11:15 AM 64.4 °F - 55.9 °F 74% 29.74 in 10.0 mi SW 23.0 mph 36.8 mph N/A   Scattered Clouds
11:35 AM 65.5 °F - 55.2 °F 69% 29.75 in 10.0 mi WSW 23.0 mph 32.2 mph N/A   Mostly Cloudy
11:55 AM 65.7 °F - 54.3 °F 67% 29.75 in 10.0 mi WSW 24.2 mph 32.2 mph N/A   Mostly Cloudy
12:15 PM 66.0 °F - 53.4 °F 64% 29.75 in 10.0 mi WSW 27.6 mph 35.7 mph N/A   Scattered Clouds
12:35 PM 66.7 °F - 53.8 °F 63% 29.76 in 10.0 mi WSW 25.3 mph 32.2 mph N/A   Clear
12:55 PM 67.8 °F - 54.1 °F 62% 29.76 in 10.0 mi WSW 24.2 mph 32.2 mph N/A   Scattered Clouds
1:15 PM 68.5 °F - 54.9 °F 62% 29.77 in 10.0 mi WSW 19.6 mph 29.9 mph N/A   Clear
1:35 PM 68.5 °F - 54.9 °F 62% 29.77 in 10.0 mi WSW 19.6 mph 26.5 mph N/A   Scattered Clouds
1:55 PM 68.7 °F - 55.0 °F 62% 29.78 in 10.0 mi West 18.4 mph 25.3 mph N/A   Scattered Clouds
2:15 PM 68.9 °F - 53.4 °F 58% 29.78 in 10.0 mi West 18.4 mph 26.5 mph N/A   Scattered Clouds
2:35 PM 69.8 °F - 53.1 °F 55% 29.78 in 10.0 mi WSW 21.9 mph 25.3 mph N/A   Clear
2:55 PM 70.2 °F - 53.2 °F 55% 29.79 in 10.0 mi WSW 19.6 mph 24.2 mph N/A   Scattered Clouds
3:15 PM 70.3 °F - 53.4 °F 55% 29.78 in 10.0 mi West 12.7 mph 19.6 mph N/A   Scattered Clouds
3:35 PM 70.7 °F - 52.5 °F 52% 29.79 in 10.0 mi West 12.7 mph 23.0 mph N/A   Scattered Clouds
3:55 PM 70.9 °F - 52.5 °F 52% 29.79 in 10.0 mi West 15.0 mph 18.4 mph N/A   Scattered Clouds
4:15 PM 71.4 °F - 51.8 °F 50% 29.79 in 10.0 mi West 11.5 mph 19.6 mph N/A   Scattered Clouds
4:35 PM 71.6 °F - 52.5 °F 51% 29.79 in 10.0 mi West 15.0 mph 19.6 mph N/A   Scattered Clouds
4:55 PM 70.2 °F - 53.1 °F 55% 29.81 in 10.0 mi West 9.2 mph - N/A   Scattered Clouds
5:15 PM 71.4 °F - 52.7 °F 52% 29.81 in 10.0 mi West 10.4 mph - N/A   Scattered Clouds
5:35 PM 71.6 °F - 52.2 °F 50% 29.82 in 10.0 mi West 10.4 mph - N/A   Clear
5:55 PM 71.1 °F - 52.0 °F 51% 29.83 in 10.0 mi West 5.8 mph - N/A   Clear
6:15 PM 70.3 °F - 51.8 °F 52% 29.84 in 10.0 mi WNW 8.1 mph - N/A   Clear
6:35 PM 67.8 °F - 52.0 °F 57% 29.85 in 10.0 mi West 4.6 mph - N/A   Clear
6:55 PM 68.0 °F - 51.8 °F 56% 29.85 in 10.0 mi Calm Calm - N/A   Clear
7:15 PM 66.9 °F - 51.8 °F 58% 29.86 in 10.0 mi Calm Calm - N/A   Clear
7:35 PM 64.6 °F - 51.8 °F 63% 29.86 in 10.0 mi Calm Calm - N/A   Clear
7:55 PM 61.3 °F - 51.8 °F 71% 29.87 in 10.0 mi NNE 4.6 mph - N/A   Clear
8:15 PM 60.3 °F - 51.4 °F 73% 29.88 in 10.0 mi NNE 10.4 mph 16.1 mph N/A   Clear
8:35 PM 54.5 °F - 47.3 °F 77% 29.89 in 10.0 mi NE 8.1 mph - N/A   Clear
8:55 PM 52.7 °F - 46.6 °F 80% 29.91 in 10.0 mi NE 6.9 mph - N/A   Clear
9:15 PM 51.4 °F - 46.4 °F 83% 29.92 in 10.0 mi NE 8.1 mph - N/A   Clear
9:35 PM 52.7 °F - 46.6 °F 80% 29.95 in 10.0 mi East 13.8 mph 17.3 mph N/A   Scattered Clouds
9:55 PM 52.0 °F - 46.0 °F 80% 29.95 in 10.0 mi NE 9.2 mph - N/A   Overcast
10:15 PM 51.4 °F - 45.7 °F 81% 29.95 in 10.0 mi ENE 9.2 mph - N/A   Mostly Cloudy
10:35 PM 51.3 °F - 45.9 °F 82% 29.96 in 10.0 mi ENE 9.2 mph - N/A   Mostly Cloudy
10:55 PM 51.4 °F - 45.7 °F 81% 29.96 in 10.0 mi ENE 12.7 mph - N/A   Overcast
11:15 PM 51.1 °F - 45.5 °F 81% 29.95 in 10.0 mi ENE 9.2 mph - N/A Rain , Thunderstorm Light Thunderstorms and Rain
11:35 PM 51.3 °F - 45.5 °F 81% 29.96 in 10.0 mi ENE 11.5 mph - N/A   Overcast
11:55 PM 50.5 °F - 45.9 °F 84% 29.96 in 10.0 mi East 9.2 mph - N/A Rain , Thunderstorm Light Thunderstorms and Rain